createdAt,value
2018-01-13T00:01:38.134Z,99892.69
2018-01-13T00:04:10.162Z,99889.63
2018-01-13T00:06:41.442Z,99892.72
2018-01-13T00:09:13.008Z,99893.83
2018-01-13T00:11:44.048Z,99886.89
2018-01-13T00:14:15.549Z,99883.55
2018-01-13T00:16:47.147Z,99882.76
2018-01-13T00:19:18.081Z,99885.10
2018-01-13T00:21:49.798Z,99880.78
2018-01-13T00:24:23.133Z,99884.58
2018-01-13T00:26:58.252Z,99878.49
2018-01-13T00:29:29.325Z,99881.02
2018-01-13T00:32:00.281Z,99888.31
2018-01-13T00:34:31.344Z,99887.71
2018-01-13T00:37:02.604Z,99881.52
2018-01-13T00:39:34.863Z,99886.50
2018-01-13T00:42:06.349Z,99887.91
2018-01-13T00:44:37.446Z,99884.42
2018-01-13T00:47:08.554Z,99881.59
2018-01-13T00:49:39.706Z,99884.76
2018-01-13T00:52:10.745Z,99882.48
2018-01-13T00:54:42.478Z,99876.68
2018-01-13T00:57:13.597Z,99876.79
2018-01-13T00:59:45.959Z,99889.53
2018-01-13T01:02:31.672Z,99870.32
2018-01-13T01:05:36.578Z,99879.14
2018-01-13T01:08:11.983Z,99882.98
2018-01-13T01:10:58.182Z,99876.69
2018-01-13T01:13:34.173Z,99877.97
2018-01-13T01:23:29.926Z,99881.58
2018-01-13T01:26:06.687Z,99883.16
2018-01-13T01:29:05.458Z,99879.70
2018-01-13T01:32:01.159Z,99878.00
2018-01-13T01:34:33.771Z,99874.92
2018-01-13T01:37:05.527Z,99881.06
2018-01-13T01:39:36.679Z,99876.94
2018-01-13T01:42:09.246Z,99875.36
2018-01-13T01:44:40.863Z,99875.19
2018-01-13T01:47:12.676Z,99872.20
2018-01-13T01:49:44.020Z,99873.95
2018-01-13T01:52:15.251Z,99880.34
2018-01-13T01:54:46.155Z,99886.25
2018-01-13T01:57:17.797Z,99889.20
2018-01-13T01:59:49.077Z,99886.14
2018-01-13T02:02:20.786Z,99886.82
2018-01-13T02:04:54.469Z,99885.43
2018-01-13T02:07:26.964Z,99888.24
2018-01-13T02:09:59.754Z,99885.57
2018-01-13T02:12:31.469Z,99881.23
2018-01-13T02:15:03.645Z,99881.02
2018-01-13T02:17:34.869Z,99881.13
2018-01-13T02:20:06.044Z,99884.50
2018-01-13T02:22:38.647Z,99885.28
2018-01-13T02:25:10.506Z,99881.77
2018-01-13T02:27:42.450Z,99884.66
2018-01-13T02:30:14.744Z,99882.77
2018-01-13T02:32:46.252Z,99875.26
2018-01-13T02:35:17.599Z,99874.05
2018-01-13T02:37:50.078Z,99878.04
2018-01-13T02:40:22.101Z,99876.83
2018-01-13T02:42:55.911Z,99878.81
2018-01-13T02:45:27.344Z,99881.66
2018-01-13T02:47:58.958Z,99880.31
2018-01-13T02:50:30.754Z,99881.30
2018-01-13T02:53:02.768Z,99883.30
2018-01-13T02:55:34.491Z,99882.84
2018-01-13T02:58:06.455Z,99886.78
2018-01-13T03:00:38.218Z,99881.27
2018-01-13T03:03:09.979Z,99887.39
2018-01-13T03:05:44.932Z,99881.30
2018-01-13T03:08:19.269Z,99875.66
2018-01-13T03:10:50.625Z,99872.20
2018-01-13T03:13:21.719Z,99870.50
2018-01-13T03:15:56.329Z,99867.75
2018-01-13T03:18:27.751Z,99870.86
2018-01-13T03:21:00.114Z,99859.69
2018-01-13T03:23:31.892Z,99864.98
2018-01-13T03:26:03.687Z,99866.57
2018-01-13T03:28:35.574Z,99861.53
2018-01-13T03:31:07.334Z,99861.39
2018-01-13T03:33:39.278Z,99855.98
2018-01-13T03:36:11.165Z,99858.94
2018-01-13T03:38:43.238Z,99857.56
2018-01-13T03:41:15.010Z,99859.00
2018-01-13T03:43:46.685Z,99857.90
2018-01-13T03:46:18.515Z,99858.01
2018-01-13T03:48:50.177Z,99858.02
2018-01-13T03:51:22.057Z,99854.75
2018-01-13T03:53:57.800Z,99853.59
2018-01-13T03:56:29.185Z,99853.85
2018-01-13T03:59:01.603Z,99852.56
2018-01-13T04:01:32.948Z,99850.13
2018-01-13T04:04:04.605Z,99855.52
2018-01-13T04:06:36.359Z,99847.83
2018-01-13T04:09:07.978Z,99844.72
2018-01-13T04:11:48.693Z,99844.72
2018-01-13T04:14:21.982Z,99852.86
2018-01-13T04:16:56.220Z,99854.70
2018-01-13T04:19:28.159Z,99847.35
2018-01-13T04:22:00.199Z,99847.74
2018-01-13T04:24:31.788Z,99853.04
2018-01-13T04:27:03.653Z,99848.58
2018-01-13T04:29:35.723Z,99848.59
2018-01-13T04:32:07.599Z,99848.95
2018-01-13T04:34:38.843Z,99855.02
2018-01-13T04:37:10.328Z,99850.67
2018-01-13T04:39:42.279Z,99850.20
2018-01-13T04:42:14.519Z,99844.22
2018-01-13T04:44:46.395Z,99845.47
2018-01-13T04:47:18.146Z,99842.84
2018-01-13T04:49:50.299Z,99841.23
2018-01-13T04:52:22.057Z,99852.56
2018-01-13T04:54:55.965Z,99842.17
2018-01-13T04:57:27.214Z,99846.63
2018-01-13T04:59:59.123Z,99843.05
2018-01-13T05:02:30.389Z,99844.92
2018-01-13T05:05:02.334Z,99841.97
2018-01-13T05:07:33.568Z,99844.54
2018-01-13T05:10:05.813Z,99843.92
2018-01-13T05:12:37.436Z,99847.53
2018-01-13T05:15:09.218Z,99848.30
2018-01-13T05:17:41.333Z,99843.98
2018-01-13T05:20:12.703Z,99844.85
2018-01-13T05:22:44.313Z,99849.04
2018-01-13T05:25:15.893Z,99853.22
2018-01-13T05:27:47.320Z,99852.89
2018-01-13T05:30:18.759Z,99852.40
2018-01-13T05:32:50.450Z,99852.26
2018-01-13T05:35:21.983Z,99850.05
2018-01-13T05:37:56.844Z,99849.29
2018-01-13T05:40:28.240Z,99848.68
2018-01-13T05:43:00.075Z,99850.00
2018-01-13T05:45:32.099Z,99845.41
2018-01-13T05:48:02.920Z,99854.31
2018-01-13T05:50:34.621Z,99845.23
2018-01-13T05:53:06.448Z,99852.83
2018-01-13T05:55:38.686Z,99853.88
2018-01-13T05:58:11.042Z,99859.31
2018-01-13T06:00:43.270Z,99855.84
2018-01-13T06:03:14.711Z,99855.41
2018-01-13T06:05:46.978Z,99844.52
2018-01-13T06:08:20.509Z,99848.08
2018-01-13T06:10:53.759Z,99849.22
2018-01-13T06:13:27.152Z,99840.81
2018-01-13T06:15:59.763Z,99844.16
2018-01-13T06:18:32.474Z,99841.59
2018-01-13T06:21:04.064Z,99851.50
2018-01-13T06:23:35.026Z,99848.94
2018-01-13T06:26:08.350Z,99841.17
2018-01-13T06:28:41.679Z,99841.06
2018-01-13T06:31:14.439Z,99845.66
2018-01-13T06:33:47.529Z,99836.08
2018-01-13T06:36:21.417Z,99840.11
2018-01-13T06:38:57.042Z,99839.77
2018-01-13T06:41:28.778Z,99847.05
2018-01-13T06:44:02.056Z,99844.96
2018-01-13T06:46:33.623Z,99848.41
2018-01-13T06:49:04.975Z,99840.56
2018-01-13T06:51:39.799Z,99838.41
2018-01-13T06:54:12.057Z,99839.61
2018-01-13T06:56:44.686Z,99840.84
2018-01-13T06:59:16.385Z,99843.08
2018-01-13T07:01:47.984Z,99844.25
2018-01-13T07:04:21.054Z,99842.55
2018-01-13T07:06:57.013Z,99841.75
2018-01-13T07:09:33.162Z,99845.14
2018-01-13T07:12:07.568Z,99848.51
2018-01-13T07:14:39.500Z,99847.42
2018-01-13T07:17:10.730Z,99844.34
2018-01-13T07:19:42.548Z,99846.97
2018-01-13T07:22:15.940Z,99849.43
2018-01-13T07:24:49.895Z,99843.51
2018-01-13T07:27:22.549Z,99847.91
2018-01-13T07:29:57.442Z,99845.10
2018-01-13T07:32:29.235Z,99843.87
2018-01-13T07:35:02.845Z,99840.52
2018-01-13T07:37:36.653Z,99838.68
2018-01-13T07:40:08.321Z,99835.55
2018-01-13T07:42:40.739Z,99840.14
2018-01-13T07:45:15.732Z,99843.34
2018-01-13T07:47:50.941Z,99844.53
2018-01-13T07:50:23.561Z,99849.17
2018-01-13T07:52:57.458Z,99848.78
2018-01-13T07:55:30.267Z,99849.67
2018-01-13T07:58:03.082Z,99846.55
2018-01-13T08:00:35.115Z,99846.38
2018-01-13T08:03:16.945Z,99852.64
2018-01-13T08:05:58.866Z,99852.05
2018-01-13T08:08:33.282Z,99855.06
2018-01-13T08:11:05.745Z,99856.09
2018-01-13T08:13:42.885Z,99855.77
2018-01-13T08:16:15.683Z,99850.20
2018-01-13T08:18:48.499Z,99855.47
2018-01-13T08:21:22.521Z,99856.30
2018-01-13T08:23:57.422Z,99851.70
2018-01-13T08:26:29.629Z,99853.95
2018-01-13T08:29:01.645Z,99849.04
2018-01-13T08:31:33.059Z,99852.43
2018-01-13T08:34:04.090Z,99856.91
2018-01-13T08:36:35.871Z,99854.02
2018-01-13T08:39:08.898Z,99855.06
2018-01-13T08:41:40.304Z,99854.50
2018-01-13T08:44:11.358Z,99857.51
2018-01-13T08:46:42.950Z,99853.67
2018-01-13T08:49:15.433Z,99850.75
2018-01-13T08:51:46.753Z,99858.44
2018-01-13T08:54:18.040Z,99859.95
2018-01-13T08:56:49.093Z,99851.47
2018-01-13T08:59:23.371Z,99854.53
2018-01-13T09:01:59.480Z,99858.47
2018-01-13T09:04:30.435Z,99859.30
2018-01-13T09:07:02.227Z,99848.36
2018-01-13T09:09:35.200Z,99850.02
2018-01-13T09:12:07.260Z,99854.64
2018-01-13T09:14:39.822Z,99853.06
2018-01-13T09:17:12.544Z,99861.70
2018-01-13T09:19:44.023Z,99859.66
2018-01-13T09:22:15.255Z,99862.45
2018-01-13T09:24:48.018Z,99862.84
2018-01-13T09:27:19.719Z,99856.30
2018-01-13T09:29:50.845Z,99857.71
2018-01-13T09:32:22.568Z,99852.88
2018-01-13T09:34:57.213Z,99859.98
2018-01-13T09:37:28.445Z,99860.20
2018-01-13T09:39:59.961Z,99865.59
2018-01-13T09:42:30.831Z,99860.70
2018-01-13T09:45:01.753Z,99860.19
2018-01-13T09:47:32.746Z,99864.27
2018-01-13T09:50:04.023Z,99865.08
2018-01-13T09:52:34.858Z,99862.34
2018-01-13T09:55:07.109Z,99860.14
2018-01-13T09:57:38.134Z,99852.30
2018-01-13T10:00:09.704Z,99857.50
2018-01-13T10:02:40.929Z,99864.03
2018-01-13T10:05:13.232Z,99856.17
2018-01-13T10:07:45.251Z,99857.25
2018-01-13T10:10:16.352Z,99869.11
2018-01-13T10:12:47.324Z,99857.28
2018-01-13T10:15:19.646Z,99861.24
2018-01-13T10:17:55.193Z,99860.19
2018-01-13T10:20:28.025Z,99861.84
2018-01-13T10:22:59.009Z,99842.34
2018-01-13T10:25:31.423Z,99856.69
2018-01-13T10:28:02.577Z,99850.14
2018-01-13T10:30:33.948Z,99856.30
2018-01-13T10:33:08.157Z,99850.31
2018-01-13T10:35:40.960Z,99854.45
2018-01-13T10:38:12.266Z,99848.86
2018-01-13T10:40:43.569Z,99851.17
2018-01-13T11:26:59.828Z,99821.69
2018-01-13T11:29:31.098Z,99814.28
2018-01-13T11:32:02.686Z,99820.11
2018-01-13T11:34:34.729Z,99818.80
2018-01-13T11:37:06.422Z,99812.98
2018-01-13T11:39:38.241Z,99810.53
2018-01-13T11:42:09.334Z,99811.40
2018-01-13T11:44:40.447Z,99810.10
2018-01-13T11:47:12.250Z,99806.20
2018-01-13T11:49:46.621Z,99801.95
2018-01-13T11:52:18.118Z,99804.02
2018-01-13T11:55:02.321Z,99800.84
2018-01-13T11:57:33.897Z,99794.11
2018-01-13T12:00:05.252Z,99797.70
2018-01-13T12:02:36.300Z,99798.12
2018-01-13T12:05:08.338Z,99799.52
2018-01-13T12:07:39.558Z,99797.95
2018-01-13T12:10:12.246Z,99794.93
2018-01-13T12:12:43.199Z,99797.94
2018-01-13T12:15:14.322Z,99795.98
2018-01-13T12:17:45.955Z,99793.02
2018-01-13T12:20:19.047Z,99791.25
2018-01-13T12:22:53.728Z,99792.38
2018-01-13T12:25:33.281Z,99786.28
2018-01-13T12:28:04.886Z,99792.92
2018-01-13T12:30:36.413Z,99785.41
2018-01-13T12:33:07.682Z,99782.94
2018-01-13T12:35:39.430Z,99777.03
2018-01-13T12:38:11.243Z,99779.89
2018-01-13T12:40:43.519Z,99773.69
2018-01-13T12:43:15.108Z,99776.61
2018-01-13T12:45:46.352Z,99774.17
2018-01-13T12:48:17.453Z,99770.82
2018-01-13T12:50:49.579Z,99766.13
2018-01-13T12:53:20.906Z,99775.48
2018-01-13T12:55:56.159Z,99771.27
2018-01-13T12:58:28.289Z,99768.20
2018-01-13T13:01:00.767Z,99769.77
2018-01-13T13:03:33.152Z,99770.30
2018-01-13T13:06:13.612Z,99771.17
2018-01-13T13:08:45.194Z,99770.36
2018-01-13T13:11:17.104Z,99765.78
2018-01-13T13:13:50.206Z,99763.56
2018-01-13T13:16:21.876Z,99760.10
2018-01-13T13:18:53.119Z,99759.27
2018-01-13T13:21:25.096Z,99761.36
2018-01-13T13:23:57.082Z,99759.23
2018-01-13T13:26:29.906Z,99760.19
2018-01-13T13:29:01.353Z,99758.14
2018-01-13T13:33:01.874Z,99750.65
2018-01-13T13:36:10.052Z,99750.76
2018-01-13T13:38:41.597Z,99753.19
2018-01-13T13:41:13.037Z,99751.72
2018-01-13T13:43:44.343Z,99748.59
2018-01-13T13:46:15.873Z,99749.46
2018-01-13T13:48:47.948Z,99756.05
2018-01-13T13:51:19.036Z,99751.24
2018-01-13T13:53:51.074Z,99754.30
2018-01-13T13:56:22.040Z,99753.66
2018-01-13T13:58:53.966Z,99755.38
2018-01-13T14:01:32.827Z,99756.21
2018-01-13T14:04:05.236Z,99755.86
2018-01-13T14:06:38.013Z,99745.43
2018-01-13T14:09:09.682Z,99749.78
2018-01-13T14:11:41.186Z,99749.70
2018-01-13T14:14:13.184Z,99747.58
2018-01-13T14:16:44.695Z,99748.84
2018-01-13T14:19:16.255Z,99756.97
2018-01-13T14:21:47.237Z,99760.18
2018-01-13T14:24:18.629Z,99763.45
2018-01-13T14:26:49.851Z,99758.22
2018-01-13T14:29:55.743Z,99753.37
2018-01-13T14:32:28.482Z,99761.63
2018-01-13T14:35:05.021Z,99757.84
2018-01-13T14:37:37.562Z,99756.45
2018-01-13T14:40:12.092Z,99748.09
2018-01-13T14:42:43.008Z,99752.92
2018-01-13T14:45:16.380Z,99752.95
2018-01-13T14:47:47.758Z,99757.13
2018-01-13T14:50:20.565Z,99758.13
2018-01-13T14:52:52.604Z,99751.56
2018-01-13T14:55:24.485Z,99748.89
2018-01-13T14:57:58.120Z,99746.69
2018-01-13T15:00:29.219Z,99743.55
2018-01-13T15:03:00.685Z,99745.27
2018-01-13T15:05:31.807Z,99746.21
2018-01-13T15:08:04.031Z,99747.16
2018-01-13T15:10:39.873Z,99751.24
2018-01-13T15:13:10.798Z,99743.80
2018-01-13T15:15:43.818Z,99745.11
2018-01-13T15:18:18.695Z,99753.74
2018-01-13T15:20:49.573Z,99754.16
2018-01-13T15:23:21.401Z,99746.94
2018-01-13T15:25:53.929Z,99747.36
2018-01-13T15:28:26.077Z,99749.00
2018-01-13T15:30:57.806Z,99755.33
2018-01-13T15:33:31.554Z,99750.22
2018-01-13T15:36:02.624Z,99756.42
2018-01-13T15:38:34.499Z,99761.28
2018-01-13T15:41:05.461Z,99755.48
2018-01-13T15:43:37.280Z,99757.58
2018-01-13T15:46:08.732Z,99762.94
2018-01-13T15:48:39.871Z,99761.28
2018-01-13T15:51:11.243Z,99758.75
2018-01-13T15:53:42.776Z,99755.31
2018-01-13T15:56:14.615Z,99758.89
2018-01-13T15:58:52.077Z,99762.31
2018-01-13T16:01:48.676Z,99764.30
2018-01-13T16:04:30.859Z,99752.88
2018-01-13T16:07:02.373Z,99763.11
2018-01-13T16:09:38.334Z,99762.59
2018-01-13T16:12:20.429Z,99761.20
2018-01-13T16:17:46.167Z,99764.28
2018-01-13T16:20:20.582Z,99758.52
2018-01-13T16:22:55.775Z,99762.16
2018-01-13T16:25:36.313Z,99761.35
2018-01-13T16:28:07.752Z,99760.92
2018-01-13T16:30:39.228Z,99764.28
2018-01-13T16:33:10.419Z,99765.91
2018-01-13T16:35:41.353Z,99767.72
2018-01-13T16:38:12.701Z,99767.27
2018-01-13T16:40:45.661Z,99768.18
2018-01-13T16:43:17.840Z,99758.77
2018-01-13T16:45:49.524Z,99760.46
2018-01-13T16:48:21.040Z,99754.79
2018-01-13T16:50:53.450Z,99746.69
2018-01-13T16:53:25.006Z,99753.02
2018-01-13T16:55:59.341Z,99754.88
2018-01-13T17:07:55.520Z,99748.72
2018-01-13T17:22:33.617Z,99735.88
2018-01-13T17:25:45.644Z,99734.70
2018-01-13T17:28:38.834Z,99727.61
2018-01-13T17:31:18.256Z,99725.13
2018-01-13T17:33:58.395Z,99721.15
2018-01-13T17:36:52.362Z,99725.42
2018-01-13T17:39:28.222Z,99732.58
2018-01-13T17:41:59.561Z,99723.62
2018-01-13T17:44:34.906Z,99720.84
2018-01-13T17:47:06.669Z,99723.29
2018-01-13T17:49:37.662Z,99720.81
2018-01-13T17:52:08.589Z,99707.62
2018-01-13T17:54:39.872Z,99698.16
2018-01-13T17:57:11.183Z,99702.41
2018-01-13T17:59:42.697Z,99696.09
2018-01-13T18:02:15.432Z,99702.62
2018-01-13T18:04:47.231Z,99710.13
2018-01-13T18:07:19.103Z,99723.41
2018-01-13T18:09:50.943Z,99710.28
2018-01-13T18:12:21.957Z,99704.97
2018-01-13T18:14:59.796Z,99703.61
2018-01-13T18:17:31.171Z,99703.95
2018-01-13T18:20:02.572Z,99707.62
2018-01-13T18:22:33.514Z,99713.89
2018-01-13T18:25:04.931Z,99711.24
2018-01-13T18:27:35.975Z,99707.77
2018-01-13T18:30:07.181Z,99712.81
2018-01-13T18:32:39.348Z,99715.31
2018-01-13T18:35:12.044Z,99718.39
2018-01-13T18:37:45.178Z,99705.41
2018-01-13T18:40:24.001Z,99709.64
2018-01-13T18:42:55.440Z,99701.96
2018-01-13T18:45:26.529Z,99702.92
2018-01-13T18:47:58.869Z,99699.08
2018-01-13T18:50:35.780Z,99694.14
2018-01-13T18:53:07.652Z,99697.25
2018-01-13T18:55:40.696Z,99694.29
2018-01-13T18:58:13.263Z,99697.72
2018-01-13T19:00:45.882Z,99697.26
2018-01-13T19:03:17.201Z,99704.80
2018-01-13T19:05:50.290Z,99698.53
2018-01-13T19:08:21.540Z,99705.63
2018-01-13T19:10:53.399Z,99703.34
2018-01-13T19:13:24.995Z,99703.45
2018-01-13T19:15:56.271Z,99692.53
2018-01-13T19:18:34.096Z,99693.30
2018-01-13T19:21:05.711Z,99686.88
2018-01-13T19:23:37.691Z,99690.00
2018-01-13T19:26:09.801Z,99693.16
2018-01-13T19:28:41.478Z,99695.00
2018-01-13T19:31:14.278Z,99695.86
2018-01-13T19:33:45.690Z,99696.25
2018-01-13T19:36:17.837Z,99692.36
2018-01-13T19:38:49.116Z,99695.55
2018-01-13T19:41:22.815Z,99687.61
2018-01-13T19:43:57.840Z,99678.12
2018-01-13T19:46:35.254Z,99684.61
2018-01-13T19:49:06.832Z,99680.08
2018-01-13T19:51:38.346Z,99676.69
2018-01-13T19:54:23.209Z,99676.42
2018-01-13T19:57:00.937Z,99676.45
2018-01-13T19:59:32.165Z,99681.94
2018-01-13T20:02:04.350Z,99682.67
2018-01-13T20:04:36.063Z,99672.95
2018-01-13T20:07:08.173Z,99678.09
2018-01-13T20:09:41.556Z,99676.40
2018-01-13T20:12:13.136Z,99679.78
2018-01-13T20:14:44.688Z,99674.83
2018-01-13T20:17:15.959Z,99664.72
2018-01-13T20:19:47.089Z,99673.30
2018-01-13T20:22:24.949Z,99666.30
2018-01-13T20:24:59.197Z,99669.34
2018-01-13T20:27:32.038Z,99673.11
2018-01-13T20:30:03.110Z,99668.75
2018-01-13T20:32:34.563Z,99665.46
2018-01-13T20:35:08.933Z,99666.20
2018-01-13T20:37:40.228Z,99664.73
2018-01-13T20:40:12.769Z,99667.61
2018-01-13T20:42:44.109Z,99667.62
